Portada
METAR-TAF:

METAR-TAF

Aeroports :

Aeroport de Jiddah Rei Abdulaziz

Jiddah, Aràbia Saudita

latitud: 21-42N, longitud: 039-11E, altitud: 15 m

Observació

L'informe es va fer fa 1 hora i 3 minuts, a les 01:00 UTC
Vent 2 kt del Est/Sud-Est
Temperatura 34°C
Humitat 30%
Pressió 1002 hPa
Visibilitat 10 km o més
sense núvols per sota de 1500 mi sense presència de cumulonimbus.

METAR: OEJN 130100Z 12002KT CAVOK 34/14 Q1002 NOSIG

Hora: 05:03 (02:03 UTC)

Pronòstic

L'informe es va fer fa 3 hores i 3 minuts, a les 23:00 UTC
Pronòstic vàlid del 13 a les 00 UTC al 14 a les 06 UTC
Vent 6 kt del Est
Visibilitat: 7000 m
Evolucionant progressivament
l' 13 a les 06 UTC al 13 a les 08 UTC
Vent 15 kt del Oest
Visibilitat 10 km o més
sense núvols per sota de 1500 mi sense presència de cumulonimbus.
Evolucionant progressivament
l' 13 a les 18 UTC al 13 a les 20 UTC
Vent 10 kt del Est/Nord-Est

TAF: OEJN 122300Z 1300/1406 10006KT 7000 NSC BECMG 1306/1308 26015KT CAVOK BECMG 1318/1320 07010KT

Observacions i pronòstics meteorològics de més de 4000 aeroports (METAR i TAF).

Les estacions disponibles són els punts grocs i vermells al mapa.

Posi el ratolí al punt desitjat per veure el nom de l'estació.

Feu clic per veure les observacions i els pronòstics meteorològics.

Per canviar el mapa: feu clic els botons verds amb una creu de color negre per apropar; al botó verd amb un guió per allunyar la imatge; o en les fletxes verdes per a mapes adjacents.


METAR-TAF: